»·PEaware :: N695DS KSAN-KTRM

N695DS :: KSAN-KTRM

FLIGHT INFORMATION

Flight Status: Arrived
Operator: Privately registered:
United States
More flights under this callsign
Pilot: Christopher S. (2105)
Aircraft: Unknown
(DA62)
More flights by this aircraft type
Origin: KSAN San Diego Intl-Lindbergh
United States
Destination: KTRM Desert Resorts Regl
United States
More flights between these airports :: More routes between these airports
Route: JLI V208 TRM
File this flight plan on PilotEdge
Remarks: SID
Altitude:
(Current/Filed)
9,000ft
Speed:
(Current/Filed)
170kts
Departed: 01-Jan-20 01:44 PM
Arrived: 01-Jan-20 02:22 PM
Distance/Time
Traveled:
75nm/0:38
Distance/Time
To Go:
Arrived

Flight Plot

Page will automatically refresh every two minutes.


Map Options




Map Legend


Flown Route
Filed Route
Departure Airport
Arrival Airport
Navaid (VOR, NDB)
Fix

Horizontal Profiles

Position Reports

Time Latitude Longitude Heading Altitude Ground
Speed
01-Jan-20 13:22 32.733503 -117.178542 213 20ft 0kts
01-Jan-20 13:23 32.733503 -117.178542 213 20ft 0kts
01-Jan-20 13:24 32.733503 -117.178542 213 20ft 0kts
01-Jan-20 13:25 32.733503 -117.178542 213 20ft 0kts
01-Jan-20 13:26 32.733503 -117.178542 213 20ft 0kts
01-Jan-20 13:27 32.733503 -117.178542 213 20ft 0kts
01-Jan-20 13:28 32.733503 -117.178542 213 20ft 0kts
01-Jan-20 13:29 32.733503 -117.178542 213 20ft 0kts
01-Jan-20 13:30 32.733503 -117.178542 213 20ft 0kts
01-Jan-20 13:31 32.733503 -117.178542 213 20ft 0kts
01-Jan-20 13:33 32.733503 -117.178542 213 20ft 0kts
01-Jan-20 13:34 32.733503 -117.178542 213 20ft 0kts
01-Jan-20 13:35 32.733503 -117.178542 213 20ft 0kts
01-Jan-20 13:36 32.733503 -117.178542 213 20ft 0kts
01-Jan-20 13:37 32.733503 -117.178542 213 20ft 0kts
01-Jan-20 13:38 32.732740 -117.178007 117 20ft 6kts
01-Jan-20 13:39 32.731298 -117.176188 110 21ft 5kts
01-Jan-20 13:40 32.730883 -117.175408 148 21ft 0kts
01-Jan-20 13:41 32.730883 -117.175408 149 21ft 0kts
01-Jan-20 13:42 32.730875 -117.175403 149 21ft 0kts
01-Jan-20 13:43 32.730419 -117.176781 285 20ft 26kts
01-Jan-20 13:44 32.737119 -117.203339 286 587ft 106kts
01-Jan-20 13:45 32.749130 -117.242202 295 1505ft 135kts
01-Jan-20 13:46 32.777497 -117.271171 321 2491ft 135kts
01-Jan-20 13:47 32.808547 -117.295409 320 3463ft 133kts
01-Jan-20 13:48 32.839481 -117.318683 321 4437ft 130kts
01-Jan-20 13:49 32.870210 -117.341474 321 5285ft 134kts
01-Jan-20 13:50 32.903876 -117.341966 57 5967ft 165kts
01-Jan-20 13:51 32.923301 -117.292167 61 6658ft 166kts
01-Jan-20 13:52 32.941836 -117.241588 61 7345ft 167kts
01-Jan-20 13:53 32.959634 -117.190710 61 8029ft 167kts
01-Jan-20 13:53 32.973975 -117.147873 60 8601ft 166kts
01-Jan-20 13:55 32.994023 -117.085917 61 9001ft 184kts
01-Jan-20 13:55 33.008810 -117.036657 63 8997ft 191kts
01-Jan-20 13:56 33.026369 -116.977003 63 8996ft 190kts
01-Jan-20 13:58 33.046663 -116.907929 64 8996ft 187kts
01-Jan-20 13:58 33.060853 -116.859520 64 8997ft 185kts
01-Jan-20 13:59 33.077861 -116.801370 64 8997ft 185kts
01-Jan-20 14:00 33.094771 -116.743460 64 8997ft 185kts
01-Jan-20 14:01 33.111682 -116.685440 64 9002ft 185kts
01-Jan-20 14:02 33.128655 -116.627077 65 9002ft 186kts
01-Jan-20 14:03 33.154005 -116.576384 34 9000ft 177kts
01-Jan-20 14:04 33.193183 -116.540629 30 9019ft 176kts
01-Jan-20 14:05 33.232970 -116.505853 30 9016ft 179kts
01-Jan-20 14:06 33.273455 -116.470532 30 9006ft 181kts
01-Jan-20 14:07 33.314625 -116.434686 31 8998ft 183kts
01-Jan-20 14:08 33.353856 -116.400501 34 8989ft 170kts
01-Jan-20 14:09 33.391772 -116.367402 34 8989ft 167kts
01-Jan-20 14:10 33.424864 -116.338476 35 8984ft 129kts
01-Jan-20 14:11 33.452084 -116.314668 34 8988ft 115kts
01-Jan-20 14:12 33.477633 -116.292309 34 8991ft 114kts
01-Jan-20 14:13 33.503598 -116.268858 40 8701ft 125kts
01-Jan-20 14:14 33.527130 -116.241239 44 7382ft 121kts
01-Jan-20 14:15 33.553986 -116.216730 37 5873ft 127kts
01-Jan-20 14:16 33.584647 -116.195607 34 4361ft 128kts
01-Jan-20 14:17 33.613251 -116.170790 43 2879ft 126kts
01-Jan-20 14:18 33.644287 -116.157838 324 1164ft 128kts
01-Jan-20 14:19 33.661637 -116.188277 250 888ft 103kts
01-Jan-20 14:20 33.641326 -116.183854 133 565ft 92kts
01-Jan-20 14:21 33.625332 -116.165203 135 -110ft 32kts
01-Jan-20 14:22 33.626687 -116.165694 317 -110ft 13kts
01-Jan-20 14:23 33.630261 -116.169958 314 -106ft 21kts
01-Jan-20 14:24 33.634139 -116.169597 90 -104ft 15kts
01-Jan-20 14:25 33.634106 -116.164633 84 -107ft 4kts
01-Jan-20 14:26 33.634346 -116.164327 268 -107ft 0kts

Navigation Log

Ident Type
Flight plan parsing failed, navigation log unavailable